PWSweather.com
Personal Weather Stations
Station Observations
WILS01
Leuven, WilseleBE 3012

LeuvenWilseleBE 3012

Lat: 50.89518, Lon: 4.69741

Elevation: 120

Station Type: DAVIS VP2

Latest ConditionsUpdated 3:23:10 PM GMT+01:01 Thursday, Jul 28, 2016
Currently Today's Max Today's Min Today's Average
Temperature 76.5°F24.7°C 76.8°F24.9°C 63.9°F17.7°C 68.0°F20.0°C
Dew Point 59.2°F15.1°C 64.9°F18.3°C 58.6°F14.8°C 62.7°F17.1°C
Winds 4.5 mph SW7.2 kmh SW 5.1 mph SW8.2 kmh SW - 1.4 mph 2.3 kmh
Wind Gusts 4.7 mph7.6 kmh 5.8 mph9.3 kmh - -
Humidity 55% 96% 53% 84%
Pressure 29.94 in1013.9 mb 30.01 in1016.3 mb 29.94 in1013.9 mb -
Precipitation - 0.06 in1.5 mm - -
Hour Temp Dew Point Humidity Winds Wind Gusts Pressure Precip Precip Rate Daily Precip Total
03:23 PM 76.5°F24.7°C 59.2°F15.1°C 55% 4.5 mph SW7.2 kmh SW 4.7 mph7.6 kmh 29.94 in1013.9 mb - 0.00 in0.0 mm 0.06 in1.5 mm
03:12 PM 76.8°F24.9°C 58.6°F14.8°C 53% 3.6 mph SW5.8 kmh SW 4.7 mph7.6 kmh 29.94 in1013.9 mb - 0.00 in0.0 mm 0.06 in1.5 mm
03:02 PM 76.5°F24.7°C 60.4°F15.8°C 57% 4.7 mph SW7.6 kmh SW 3.1 mph5.0 kmh 29.94 in1013.9 mb - 0.00 in0.0 mm 0.06 in1.5 mm
02:52 PM 75.9°F24.4°C 59.4°F15.2°C 56% 5.1 mph SW8.2 kmh SW 5.8 mph9.3 kmh 29.94 in1013.9 mb - 0.00 in0.0 mm 0.06 in1.5 mm
02:42 PM 76.3°F24.6°C 59.4°F15.2°C 55% 3.1 mph SW5.0 kmh SW 3.8 mph6.1 kmh 29.94 in1013.9 mb - 0.00 in0.0 mm 0.06 in1.5 mm
02:32 PM 76.6°F24.8°C 60.1°F15.6°C 56% 2.2 mph W3.5 kmh W 2.2 mph3.5 kmh 29.94 in1013.9 mb - 0.00 in0.0 mm 0.06 in1.5 mm
02:21 PM 76.6°F24.8°C 60.4°F15.8°C 57% 3.8 mph WSW6.1 kmh WSW 2.0 mph3.2 kmh 29.94 in1013.9 mb - 0.00 in0.0 mm 0.06 in1.5 mm
02:11 PM 76.5°F24.7°C 60.1°F15.6°C 57% 4.0 mph SW6.4 kmh SW 3.6 mph5.8 kmh 29.94 in1013.9 mb - 0.00 in0.0 mm 0.06 in1.5 mm
02:00 PM 75.7°F24.3°C 61.2°F16.2°C 60% 2.9 mph SW4.7 kmh SW 3.4 mph5.5 kmh 29.95 in1014.2 mb - 0.00 in0.0 mm 0.06 in1.5 mm
01:49 PM 75.6°F24.2°C 62.1°F16.7°C 63% 2.0 mph SW3.2 kmh SW 3.6 mph5.8 kmh 29.95 in1014.2 mb - 0.00 in0.0 mm 0.06 in1.5 mm
01:39 PM 74.8°F23.8°C 62.2°F16.8°C 65% 2.5 mph SW4.0 kmh SW 2.5 mph4.0 kmh 29.95 in1014.2 mb - 0.00 in0.0 mm 0.06 in1.5 mm
01:29 PM 74.1°F23.4°C 61.2°F16.2°C 64% 2.9 mph SW4.7 kmh SW 3.8 mph6.1 kmh 29.96 in1014.6 mb - 0.00 in0.0 mm 0.06 in1.5 mm
01:19 PM 74.1°F23.4°C 62.1°F16.7°C 66% 2.5 mph SW4.0 kmh SW 2.7 mph4.3 kmh 29.96 in1014.6 mb - 0.00 in0.0 mm 0.06 in1.5 mm
01:09 PM 74.1°F23.4°C 62.8°F17.1°C 67% 2.2 mph SW3.5 kmh SW 2.2 mph3.5 kmh 29.96 in1014.6 mb - 0.00 in0.0 mm 0.06 in1.5 mm
12:58 PM 73.9°F23.3°C 62.2°F16.8°C 66% 2.0 mph WSW3.2 kmh WSW 3.4 mph5.5 kmh 29.96 in1014.6 mb - 0.00 in0.0 mm 0.06 in1.5 mm
12:48 PM 75.0°F23.9°C 63.3°F17.4°C 67% 1.8 mph SSW2.9 kmh SSW 1.6 mph2.6 kmh 29.96 in1014.6 mb - 0.00 in0.0 mm 0.06 in1.5 mm
12:38 PM 75.2°F24.0°C 63.9°F17.7°C 67% 2.5 mph SW4.0 kmh SW 3.8 mph6.1 kmh 29.96 in1014.6 mb - 0.00 in0.0 mm 0.06 in1.5 mm
12:27 PM 74.8°F23.8°C 64.0°F17.8°C 69% 2.0 mph SSW3.2 kmh SSW 1.6 mph2.6 kmh 29.96 in1014.6 mb - 0.00 in0.0 mm 0.06 in1.5 mm
12:17 PM 74.3°F23.5°C 64.0°F17.8°C 70% 3.4 mph SW5.5 kmh SW 2.0 mph3.2 kmh 29.96 in1014.6 mb - 0.00 in0.0 mm 0.06 in1.5 mm
12:07 PM 74.7°F23.7°C 64.0°F17.8°C 69% 3.1 mph SW5.0 kmh SW 4.7 mph7.6 kmh 29.96 in1014.6 mb - 0.00 in0.0 mm 0.06 in1.5 mm
11:57 AM 73.9°F23.3°C 64.9°F18.3°C 73% 2.2 mph SW3.5 kmh SW 2.9 mph4.7 kmh 29.96 in1014.6 mb - 0.00 in0.0 mm 0.06 in1.5 mm
11:46 AM 73.2°F22.9°C 64.0°F17.8°C 73% 2.9 mph SW4.7 kmh SW 3.4 mph5.5 kmh 29.96 in1014.6 mb - 0.00 in0.0 mm 0.06 in1.5 mm
11:36 AM 72.9°F22.7°C 64.0°F17.8°C 74% 3.8 mph SW6.1 kmh SW 3.4 mph5.5 kmh 29.96 in1014.6 mb - 0.00 in0.0 mm 0.06 in1.5 mm
11:25 AM 72.0°F22.2°C 64.4°F18.0°C 77% 3.6 mph SW5.8 kmh SW 3.6 mph5.8 kmh 29.96 in1014.6 mb - 0.00 in0.0 mm 0.06 in1.5 mm
11:14 AM 71.1°F21.7°C 63.9°F17.7°C 78% 2.9 mph SW4.7 kmh SW 2.7 mph4.3 kmh 29.96 in1014.6 mb - 0.00 in0.0 mm 0.06 in1.5 mm
11:04 AM 70.9°F21.6°C 64.0°F17.8°C 79% 3.4 mph SW5.5 kmh SW 2.5 mph4.0 kmh 29.96 in1014.6 mb - 0.00 in0.0 mm 0.06 in1.5 mm
10:54 AM 70.9°F21.6°C 63.7°F17.6°C 78% 4.0 mph SW6.4 kmh SW 4.9 mph7.9 kmh 29.96 in1014.6 mb - 0.00 in0.0 mm 0.06 in1.5 mm
10:44 AM 70.5°F21.4°C 64.6°F18.1°C 81% 2.9 mph SW4.7 kmh SW 3.6 mph5.8 kmh 29.96 in1014.6 mb - 0.00 in0.0 mm 0.06 in1.5 mm
10:33 AM 69.6°F20.9°C 64.6°F18.1°C 84% 1.6 mph SW2.6 kmh SW 2.2 mph3.5 kmh 29.96 in1014.6 mb - 0.00 in0.0 mm 0.06 in1.5 mm
10:23 AM 69.3°F20.7°C 64.9°F18.3°C 86% 2.0 mph SW3.2 kmh SW 2.0 mph3.2 kmh 29.97 in1014.9 mb - 0.00 in0.0 mm 0.06 in1.5 mm
10:13 AM 68.4°F20.2°C 63.7°F17.6°C 85% 2.0 mph SW3.2 kmh SW 1.8 mph2.9 kmh 29.97 in1014.9 mb - 0.00 in0.0 mm 0.06 in1.5 mm
10:03 AM 68.2°F20.1°C 64.2°F17.9°C 87% 2.0 mph WSW3.2 kmh WSW 1.6 mph2.6 kmh 29.97 in1014.9 mb - 0.00 in0.0 mm 0.06 in1.5 mm
09:53 AM 67.6°F19.8°C 64.0°F17.8°C 88% 2.5 mph SW4.0 kmh SW 1.8 mph2.9 kmh 29.97 in1014.9 mb - 0.00 in0.0 mm 0.06 in1.5 mm
09:43 AM 66.9°F19.4°C 63.7°F17.6°C 89% 1.1 mph SSW1.8 kmh SSW 2.7 mph4.3 kmh 29.97 in1014.9 mb - 0.00 in0.0 mm 0.06 in1.5 mm
09:32 AM 66.6°F19.2°C 63.5°F17.5°C 90% 0.9 mph WSW1.4 kmh WSW 0.9 mph1.4 kmh 29.97 in1014.9 mb - 0.00 in0.0 mm 0.06 in1.5 mm
09:22 AM 66.4°F19.1°C 63.9°F17.7°C 91% 1.1 mph SSW1.8 kmh SSW 1.6 mph2.6 kmh 29.96 in1014.6 mb - 0.00 in0.0 mm 0.06 in1.5 mm
09:12 AM 66.4°F19.1°C 64.2°F17.9°C 93% 0.9 mph SSW1.4 kmh SSW 0.9 mph1.4 kmh 29.96 in1014.6 mb - 0.00 in0.0 mm 0.06 in1.5 mm
09:02 AM 66.0°F18.9°C 63.9°F17.7°C 93% 0.9 mph SW1.4 kmh SW 0.9 mph1.4 kmh 29.96 in1014.6 mb - 0.00 in0.0 mm 0.06 in1.5 mm
08:51 AM 65.8°F18.8°C 64.0°F17.8°C 94% 0.9 mph SW1.4 kmh SW 0.9 mph1.4 kmh 29.96 in1014.6 mb - 0.00 in0.0 mm 0.06 in1.5 mm
08:41 AM 65.7°F18.7°C 64.0°F17.8°C 94% 0.2 mph WSW0.3 kmh WSW 0.7 mph1.1 kmh 29.96 in1014.6 mb - 0.00 in0.0 mm 0.06 in1.5 mm
08:31 AM 65.1°F18.4°C 63.3°F17.4°C 94% Calm Calm 0.4 mph0.6 kmh 29.96 in1014.6 mb - 0.00 in0.0 mm 0.06 in1.5 mm
08:20 AM 64.9°F18.3°C 63.1°F17.3°C 94% 1.6 mph SW2.6 kmh SW 0.9 mph1.4 kmh 29.96 in1014.6 mb - 0.00 in0.0 mm 0.06 in1.5 mm
08:10 AM 64.8°F18.2°C 63.3°F17.4°C 95% 2.0 mph SW3.2 kmh SW 2.0 mph3.2 kmh 29.96 in1014.6 mb - 0.00 in0.0 mm 0.06 in1.5 mm
08:00 AM 64.9°F18.3°C 63.5°F17.5°C 95% 1.8 mph SW2.9 kmh SW 1.1 mph1.8 kmh 29.96 in1014.6 mb - 0.00 in0.0 mm 0.06 in1.5 mm
07:50 AM 64.9°F18.3°C 63.9°F17.7°C 95% 0.4 mph SW0.6 kmh SW 2.0 mph3.2 kmh 29.96 in1014.6 mb - 0.00 in0.0 mm 0.06 in1.5 mm
07:40 AM 64.8°F18.2°C 63.7°F17.6°C 96% 0.9 mph SW1.4 kmh SW 0.9 mph1.4 kmh 29.96 in1014.6 mb - 0.00 in0.0 mm 0.06 in1.5 mm
07:30 AM 64.4°F18.0°C 63.3°F17.4°C 96% 0.9 mph SW1.4 kmh SW 0.4 mph0.6 kmh 29.96 in1014.6 mb - 0.00 in0.0 mm 0.05 in1.3 mm
07:19 AM 64.2°F17.9°C 63.1°F17.3°C 96% 0.9 mph WSW1.4 kmh WSW 0.4 mph0.6 kmh 29.96 in1014.6 mb - 0.00 in0.0 mm 0.05 in1.3 mm
07:09 AM 64.2°F17.9°C 63.1°F17.3°C 96% Calm Calm 0.4 mph0.6 kmh 29.96 in1014.6 mb - 0.00 in0.0 mm 0.05 in1.3 mm
06:58 AM 64.2°F17.9°C 63.1°F17.3°C 96% Calm Calm -- 29.96 in1014.6 mb - 0.00 in0.0 mm 0.05 in1.3 mm
06:48 AM 64.0°F17.8°C 62.6°F17.0°C 95% Calm Calm 0.4 mph0.6 kmh 29.96 in1014.6 mb - 0.00 in0.0 mm 0.05 in1.3 mm
06:38 AM 63.9°F17.7°C 62.4°F16.9°C 95% 0.9 mph SW1.4 kmh SW 1.6 mph2.6 kmh 29.97 in1014.9 mb - 0.00 in0.0 mm 0.05 in1.3 mm
06:28 AM 63.9°F17.7°C 62.4°F16.9°C 95% 0.9 mph S1.4 kmh S 1.1 mph1.8 kmh 29.97 in1014.9 mb - 0.04 in1.0 mm 0.05 in1.3 mm
06:17 AM 63.9°F17.7°C 62.4°F16.9°C 95% 0.9 mph W1.4 kmh W 0.9 mph1.4 kmh 29.97 in1014.9 mb - 0.11 in2.8 mm 0.05 in1.3 mm
06:07 AM 64.0°F17.8°C 62.6°F17.0°C 95% 0.9 mph SSW1.4 kmh SSW 0.9 mph1.4 kmh 29.97 in1014.9 mb - 0.15 in3.8 mm 0.03 in0.8 mm
05:56 AM 64.0°F17.8°C 62.2°F16.8°C 94% 0.9 mph SW1.4 kmh SW 1.3 mph2.1 kmh 29.97 in1014.9 mb - 0.00 in0.0 mm 0.02 in0.5 mm
05:46 AM 63.9°F17.7°C 62.1°F16.7°C 94% Calm Calm 0.7 mph1.1 kmh 29.96 in1014.6 mb - 0.00 in0.0 mm 0.02 in0.5 mm
05:35 AM 63.9°F17.7°C 62.1°F16.7°C 94% Calm Calm 0.2 mph0.3 kmh 29.97 in1014.9 mb - 0.00 in0.0 mm 0.02 in0.5 mm
05:24 AM 64.0°F17.8°C 62.2°F16.8°C 94% Calm Calm 0.9 mph1.4 kmh 29.97 in1014.9 mb - 0.00 in0.0 mm 0.02 in0.5 mm
05:14 AM 64.0°F17.8°C 62.2°F16.8°C 94% Calm Calm 0.4 mph0.6 kmh 29.96 in1014.6 mb - 0.00 in0.0 mm 0.02 in0.5 mm
05:03 AM 64.0°F17.8°C 62.2°F16.8°C 94% Calm Calm 1.1 mph1.8 kmh 29.97 in1014.9 mb - 0.00 in0.0 mm 0.02 in0.5 mm
04:53 AM 64.0°F17.8°C 62.2°F16.8°C 94% Calm Calm 0.2 mph0.3 kmh 29.97 in1014.9 mb - 0.00 in0.0 mm 0.02 in0.5 mm
04:43 AM 64.2°F17.9°C 62.4°F16.9°C 94% Calm Calm 0.4 mph0.6 kmh 29.97 in1014.9 mb - 0.00 in0.0 mm 0.02 in0.5 mm
04:33 AM 64.2°F17.9°C 62.4°F16.9°C 94% Calm Calm 0.9 mph1.4 kmh 29.97 in1014.9 mb - 0.00 in0.0 mm 0.02 in0.5 mm
04:22 AM 64.2°F17.9°C 62.4°F16.9°C 94% Calm Calm 0.4 mph0.6 kmh 29.97 in1014.9 mb - 0.00 in0.0 mm 0.02 in0.5 mm
04:12 AM 64.2°F17.9°C 62.4°F16.9°C 94% Calm Calm 0.4 mph0.6 kmh 29.97 in1014.9 mb - 0.00 in0.0 mm 0.02 in0.5 mm
04:02 AM 64.2°F17.9°C 62.4°F16.9°C 94% Calm Calm 0.4 mph0.6 kmh 29.97 in1014.9 mb - 0.00 in0.0 mm 0.02 in0.5 mm
03:51 AM 64.2°F17.9°C 62.4°F16.9°C 94% Calm Calm 0.2 mph0.3 kmh 29.97 in1014.9 mb - 0.00 in0.0 mm 0.02 in0.5 mm
03:41 AM 64.4°F18.0°C 62.6°F17.0°C 94% Calm Calm 0.7 mph1.1 kmh 29.98 in1015.2 mb - 0.00 in0.0 mm 0.02 in0.5 mm
03:31 AM 64.4°F18.0°C 62.6°F17.0°C 94% 0.4 mph SW0.6 kmh SW 0.9 mph1.4 kmh 29.98 in1015.2 mb - 0.00 in0.0 mm 0.02 in0.5 mm
03:21 AM 64.4°F18.0°C 62.4°F16.9°C 93% 0.9 mph SW1.4 kmh SW 0.4 mph0.6 kmh 29.98 in1015.2 mb - 0.00 in0.0 mm 0.02 in0.5 mm
03:11 AM 64.4°F18.0°C 62.4°F16.9°C 93% Calm Calm 1.1 mph1.8 kmh 29.98 in1015.2 mb - 0.00 in0.0 mm 0.02 in0.5 mm
03:01 AM 64.4°F18.0°C 62.4°F16.9°C 93% 0.2 mph SW0.3 kmh SW 0.9 mph1.4 kmh 29.98 in1015.2 mb - 0.00 in0.0 mm 0.02 in0.5 mm
02:51 AM 64.4°F18.0°C 62.4°F16.9°C 93% 0.9 mph WSW1.4 kmh WSW 0.9 mph1.4 kmh 29.99 in1015.6 mb - 0.00 in0.0 mm 0.02 in0.5 mm
02:40 AM 64.6°F18.1°C 62.4°F16.9°C 93% 0.9 mph WSW1.4 kmh WSW 0.9 mph1.4 kmh 29.99 in1015.6 mb - 0.00 in0.0 mm 0.02 in0.5 mm
02:30 AM 64.6°F18.1°C 62.2°F16.8°C 92% 0.7 mph SW1.1 kmh SW 1.1 mph1.8 kmh 29.99 in1015.6 mb - 0.00 in0.0 mm 0.02 in0.5 mm
02:20 AM 64.6°F18.1°C 62.2°F16.8°C 92% 0.9 mph WSW1.4 kmh WSW 0.9 mph1.4 kmh 29.99 in1015.6 mb - 0.00 in0.0 mm 0.02 in0.5 mm
02:10 AM 64.6°F18.1°C 62.2°F16.8°C 92% Calm Calm 1.3 mph2.1 kmh 29.99 in1015.6 mb - 0.00 in0.0 mm 0.02 in0.5 mm
01:59 AM 64.8°F18.2°C 62.1°F16.7°C 91% 0.9 mph SW1.4 kmh SW 0.9 mph1.4 kmh 29.99 in1015.6 mb - 0.00 in0.0 mm 0.02 in0.5 mm
01:49 AM 64.8°F18.2°C 62.1°F16.7°C 91% 0.4 mph SW0.6 kmh SW 1.1 mph1.8 kmh 30.00 in1015.9 mb - 0.00 in0.0 mm 0.02 in0.5 mm
01:39 AM 64.8°F18.2°C 62.1°F16.7°C 91% 0.9 mph SW1.4 kmh SW 0.9 mph1.4 kmh 30.00 in1015.9 mb - 0.00 in0.0 mm 0.02 in0.5 mm
01:28 AM 64.8°F18.2°C 62.1°F16.7°C 91% 0.9 mph SW1.4 kmh SW 1.1 mph1.8 kmh 30.00 in1015.9 mb - 0.00 in0.0 mm 0.02 in0.5 mm
01:18 AM 64.9°F18.3°C 62.2°F16.8°C 91% 0.9 mph SSW1.4 kmh SSW 0.9 mph1.4 kmh 30.00 in1015.9 mb - 0.00 in0.0 mm 0.02 in0.5 mm
01:08 AM 65.1°F18.4°C 62.1°F16.7°C 90% Calm Calm 0.9 mph1.4 kmh 30.00 in1015.9 mb - 0.00 in0.0 mm 0.02 in0.5 mm
12:58 AM 65.5°F18.6°C 62.4°F16.9°C 90% Calm Calm 0.2 mph0.3 kmh 30.00 in1015.9 mb - 0.00 in0.0 mm 0.02 in0.5 mm
12:47 AM 65.5°F18.6°C 62.2°F16.8°C 89% Calm Calm -- 30.00 in1015.9 mb - 0.00 in0.0 mm 0.02 in0.5 mm
12:37 AM 65.7°F18.7°C 62.2°F16.8°C 89% Calm Calm 0.4 mph0.6 kmh 30.01 in1016.3 mb - 0.00 in0.0 mm 0.02 in0.5 mm
12:26 AM 66.0°F18.9°C 62.4°F16.9°C 88% Calm Calm -- 30.01 in1016.3 mb - 0.00 in0.0 mm 0.02 in0.5 mm
12:16 AM 66.4°F19.1°C 62.8°F17.1°C 87% Calm Calm -- 30.01 in1016.3 mb - 0.00 in0.0 mm 0.02 in0.5 mm
12:06 AM 66.6°F19.2°C 62.6°F17.0°C 87% Calm Calm 0.2 mph0.3 kmh 30.01 in1016.3 mb - 0.04 in1.0 mm 0.02 in0.5 mm